Time;durP1;ratioP1;P1;durP2;ratioP2;P2;SDS_P1;SDS_P2;PMS_P1;PMS_P2;Temp;Humidity;BMP_temperature;BMP_pressure;BME280_temperature;BME280_humidity;BME280_pressure;Samples;Min_cycle;Max_cycle;Signal;HPM_P1;HPM_P2
2021/07/28 00:02:07;;;;;;;14.73;12.73;;;19.30;99.90;;;;;;5014188;28;20033;-71
2021/07/28 00:04:35;;;;;;;22.25;16.35;;;19.20;99.90;;;;;;5013127;28;20025;-70
2021/07/28 00:07:01;;;;;;;22.25;16.35;;;19.30;99.90;;;;;;5014321;28;20065;-70
2021/07/28 00:09:27;;;;;;;20.10;15.48;;;19.30;99.90;;;;;;5014316;28;20064;-70
2021/07/28 00:11:53;;;;;;;20.55;15.82;;;19.30;99.90;;;;;;5014304;28;20072;-72
2021/07/28 00:14:18;;;;;;;24.95;17.23;;;19.30;99.90;;;;;;5028914;28;20006;-68
2021/07/28 00:16:44;;;;;;;23.38;16.35;;;19.30;99.90;;;;;;5033589;28;20032;-72
2021/07/28 00:19:24;;;;;;;18.60;16.15;;;19.30;99.90;;;;;;5013978;28;20037;-72
2021/07/28 00:24:34;;;;;;;26.02;17.58;;;19.20;99.90;;;;;;5013484;28;20050;-72
2021/07/28 00:27:00;;;;;;;23.23;17.70;;;19.20;99.90;;;;;;5013760;28;20033;-71
2021/07/28 00:29:27;;;;;;;24.50;16.67;;;19.20;99.90;;;;;;5013689;28;20026;-71
2021/07/28 00:31:53;;;;;;;27.58;16.48;;;19.00;99.90;;;;;;5013809;28;20022;-71
2021/07/28 00:34:18;;;;;;;18.27;16.35;;;19.10;99.90;;;;;;5012810;28;20022;-70
2021/07/28 00:36:44;;;;;;;21.10;15.25;;;19.00;99.90;;;;;;5013065;28;20392;-70
2021/07/28 00:39:10;;;;;;;16.15;13.85;;;19.00;99.90;;;;;;5013585;28;20112;-72
2021/07/28 00:41:39;;;;;;;18.15;13.98;;;18.90;99.90;;;;;;5013584;28;20112;-71
2021/07/28 00:44:05;;;;;;;20.48;12.65;;;18.90;99.90;;;;;;4995852;28;20032;-70
2021/07/28 00:46:31;;;;;;;14.85;12.07;;;18.80;99.90;;;;;;5014706;28;20419;-71
2021/07/28 00:48:57;;;;;;;18.42;13.55;;;18.80;99.90;;;;;;5033008;28;20084;-71
2021/07/28 00:51:22;;;;;;;16.25;13.60;;;18.90;99.90;;;;;;5033396;28;20025;-71
2021/07/28 00:53:49;;;;;;;14.63;12.48;;;19.10;99.90;;;;;;5033190;28;20025;-71
2021/07/28 00:56:16;;;;;;;19.80;13.75;;;19.10;99.90;;;;;;5032253;28;20037;-71
2021/07/28 00:58:42;;;;;;;19.45;14.60;;;19.20;99.90;;;;;;5015190;28;20541;-72
2021/07/28 01:01:08;;;;;;;21.23;15.77;;;19.30;99.90;;;;;;5032810;28;20029;-70
2021/07/28 01:03:34;;;;;;;18.48;14.05;;;19.40;99.90;;;;;;5014448;28;20534;-71
2021/07/28 01:06:00;;;;;;;16.33;13.13;;;19.30;99.90;;;;;;5032238;28;20025;-71
2021/07/28 01:08:26;;;;;;;15.10;12.98;;;19.30;99.90;;;;;;5015028;28;20044;-70
2021/07/28 01:10:54;;;;;;;16.45;12.63;;;19.20;99.90;;;;;;5032802;28;20029;-71
2021/07/28 01:13:26;;;;;;;17.35;12.10;;;19.10;99.90;;;;;;5032705;28;20017;-71
2021/07/28 01:16:13;;;;;;;13.68;10.73;;;19.00;99.90;;;;;;4994101;28;20022;-70
2021/07/28 01:18:41;;;;;;;17.95;12.05;;;18.90;99.90;;;;;;5012658;28;20030;-71
2021/07/28 01:21:08;;;;;;;12.40;10.75;;;19.10;99.90;;;;;;5012139;28;20026;-72
2021/07/28 01:23:34;;;;;;;16.35;11.90;;;19.10;99.90;;;;;;5012968;28;20021;-70
2021/07/28 01:26:02;;;;;;;12.60;11.40;;;19.10;99.90;;;;;;5012529;28;20507;-71
2021/07/28 01:28:29;;;;;;;18.73;12.95;;;19.10;99.90;;;;;;5012891;28;20033;-72
2021/07/28 01:31:01;;;;;;;14.05;12.00;;;19.10;99.90;;;;;;5012901;28;20022;-73
2021/07/28 01:33:31;;;;;;;;;;;19.00;99.90;;;;;;5013471;28;20480;-73
2021/07/28 01:35:58;;;;;;;16.17;12.98;;;19.10;99.90;;;;;;5012495;28;19912;-71
2021/07/28 01:38:27;;;;;;;15.32;11.65;;;19.10;99.90;;;;;;5013009;28;20026;-72
2021/07/28 01:40:55;;;;;;;15.85;13.27;;;19.00;99.90;;;;;;5013575;28;20026;-72
2021/07/28 01:43:21;;;;;;;21.73;14.35;;;19.00;99.90;;;;;;5014738;28;20026;-71
2021/07/28 01:45:47;;;;;;;22.90;14.65;;;19.20;99.90;;;;;;5030991;28;20028;-72
2021/07/28 01:48:13;;;;;;;22.00;13.48;;;19.10;99.90;;;;;;5015228;28;20025;-72
2021/07/28 01:50:39;;;;;;;17.17;13.52;;;19.20;99.90;;;;;;5033221;28;20025;-73
2021/07/28 01:53:05;;;;;;;19.75;14.80;;;19.20;99.90;;;;;;5032601;28;20021;-72
2021/07/28 01:55:31;;;;;;;22.83;15.43;;;19.10;99.90;;;;;;5031693;28;20033;-72
2021/07/28 01:58:01;;;;;;;19.23;14.77;;;19.10;99.90;;;;;;5032617;28;20087;-72
2021/07/28 02:00:27;;;;;;;25.58;16.15;;;19.00;99.90;;;;;;5031936;28;20036;-71
2021/07/28 02:02:53;;;;;;;17.75;14.20;;;19.10;99.90;;;;;;5031108;28;20088;-71
2021/07/28 02:05:19;;;;;;;18.45;13.55;;;19.10;99.90;;;;;;5031454;28;20025;-71
2021/07/28 02:07:45;;;;;;;15.60;12.07;;;19.00;99.90;;;;;;5031764;28;20038;-74
2021/07/28 02:10:11;;;;;;;12.77;11.38;;;19.00;99.90;;;;;;5032466;28;20092;-72
2021/07/28 02:12:37;;;;;;;14.27;10.98;;;18.80;99.90;;;;;;5032478;28;20022;-72
2021/07/28 02:15:03;;;;;;;21.02;11.60;;;18.70;99.90;;;;;;5018822;28;20527;-73
2021/07/28 02:17:29;;;;;;;12.35;11.05;;;18.80;99.90;;;;;;5012492;28;20038;-71
2021/07/28 02:19:55;;;;;;;12.98;10.65;;;18.80;99.90;;;;;;4994872;28;20507;-71
2021/07/28 02:22:20;;;;;;;13.30;9.98;;;18.90;99.90;;;;;;5012402;28;20053;-71
2021/07/28 02:24:46;;;;;;;14.07;10.50;;;18.70;99.90;;;;;;5012120;28;20030;-71
2021/07/28 02:27:11;;;;;;;13.68;10.82;;;18.50;99.90;;;;;;5013519;28;20026;-71
2021/07/28 02:29:37;;;;;;;17.10;10.48;;;18.40;99.90;;;;;;5013201;28;20029;-71
2021/07/28 02:32:04;;;;;;;15.77;10.95;;;18.50;99.90;;;;;;5012671;28;20025;-72
2021/07/28 02:34:30;;;;;;;19.67;12.05;;;18.60;99.90;;;;;;5015409;28;20031;-71
2021/07/28 02:36:56;;;;;;;16.90;13.02;;;18.70;99.90;;;;;;4998389;28;20029;-70
2021/07/28 02:39:22;;;;;;;13.32;11.88;;;18.80;99.90;;;;;;5017309;28;20022;-72
2021/07/28 02:41:47;;;;;;;16.50;13.23;;;18.80;99.90;;;;;;5014197;28;20427;-73
2021/07/28 02:44:13;;;;;;;17.58;12.90;;;18.60;99.90;;;;;;5013901;28;20065;-71
2021/07/28 02:46:38;;;;;;;17.40;12.85;;;18.70;99.90;;;;;;5012123;28;20120;-71
2021/07/28 02:49:04;;;;;;;19.92;13.55;;;18.60;99.90;;;;;;5012158;28;20022;-72
2021/07/28 02:51:30;;;;;;;19.55;13.13;;;18.70;99.90;;;;;;5012193;28;20421;-72
2021/07/28 02:53:55;;;;;;;17.48;12.32;;;18.60;99.90;;;;;;5010467;28;20081;-72
2021/07/28 02:56:21;;;;;;;17.10;11.88;;;18.60;99.90;;;;;;5063629;23;20369;-71
2021/07/28 02:58:47;;;;;;;17.52;11.98;;;18.60;99.90;;;;;;5005702;28;20495;-71
2021/07/28 03:01:12;;;;;;;17.70;13.43;;;18.60;99.90;;;;;;5010775;28;20034;-71
2021/07/28 03:03:38;;;;;;;16.85;12.23;;;18.50;99.90;;;;;;5010026;28;20605;-71
2021/07/28 03:06:03;;;;;;;16.60;13.27;;;18.50;99.90;;;;;;5010016;28;20030;-72
2021/07/28 03:08:29;;;;;;;19.60;14.18;;;18.50;99.90;;;;;;5010169;28;20029;-72
2021/07/28 03:10:55;;;;;;;17.75;13.65;;;18.50;99.90;;;;;;5010413;28;20026;-72
2021/07/28 03:13:20;;;;;;;13.55;12.02;;;18.60;99.90;;;;;;5010551;28;20024;-71
2021/07/28 03:15:49;;;;;;;18.98;12.77;;;18.40;99.90;;;;;;4971686;28;20166;-72
2021/07/28 03:18:15;;;;;;;16.45;12.10;;;18.40;99.90;;;;;;4971322;28;20074;-71
2021/07/28 03:20:43;;;;;;;15.35;11.70;;;18.30;99.90;;;;;;4971220;28;20076;-72
2021/07/28 03:23:08;;;;;;;16.65;13.20;;;18.30;99.90;;;;;;4988475;28;20106;-72
2021/07/28 03:25:34;;;;;;;17.25;12.07;;;18.30;99.90;;;;;;4990012;28;20102;-71
2021/07/28 03:28:00;;;;;;;13.55;10.85;;;18.30;99.90;;;;;;4974870;28;20033;-71
2021/07/28 03:30:25;;;;;;;12.13;9.95;;;18.20;99.90;;;;;;4993803;28;20094;-71
2021/07/28 03:32:51;;;;;;;12.95;9.52;;;18.10;99.90;;;;;;4993953;28;20058;-71
2021/07/28 03:35:17;;;;;;;14.75;9.88;;;18.10;99.90;;;;;;4993610;28;20104;-71
2021/07/28 03:37:42;;;;;;;12.98;9.50;;;18.00;99.90;;;;;;4993800;28;20060;-72
2021/07/28 03:40:09;;;;;;;11.55;8.95;;;18.10;99.90;;;;;;4976442;28;20401;-71
2021/07/28 03:42:34;;;;;;;10.80;9.00;;;18.00;99.90;;;;;;4993899;28;20038;-71
2021/07/28 03:45:00;;;;;;;11.48;10.07;;;18.10;99.90;;;;;;4993040;28;20031;-71
2021/07/28 03:47:30;;;;;;;10.23;8.75;;;18.20;99.90;;;;;;4993515;28;20034;-71
2021/07/28 03:49:55;;;;;;;10.52;9.43;;;18.20;99.90;;;;;;4993636;28;20393;-71
2021/07/28 03:52:21;;;;;;;12.20;9.13;;;18.20;99.90;;;;;;5009899;28;20083;-72
2021/07/28 03:54:47;;;;;;;9.77;8.77;;;18.20;99.90;;;;;;5012717;28;20414;-71
2021/07/28 03:57:13;;;;;;;10.48;9.27;;;18.20;99.90;;;;;;5012952;28;20034;-72
2021/07/28 03:59:39;;;;;;;14.18;8.48;;;18.10;99.90;;;;;;5012686;28;20076;-71
2021/07/28 04:02:06;;;;;;;13.57;8.85;;;18.00;99.90;;;;;;5013490;28;20045;-71
2021/07/28 04:04:32;;;;;;;13.90;9.07;;;18.00;99.90;;;;;;5013496;28;20058;-72
2021/07/28 04:06:58;;;;;;;14.77;10.93;;;18.00;99.90;;;;;;4981731;28;20562;-72
2021/07/28 04:09:24;;;;;;;11.23;9.57;;;18.20;99.90;;;;;;4957750;28;20030;-71
2021/07/28 04:11:50;;;;;;;10.10;8.40;;;18.20;99.90;;;;;;4975022;28;20033;-71
2021/07/28 04:14:15;;;;;;;10.30;8.73;;;18.00;99.90;;;;;;4974607;28;20031;-73
2021/07/28 04:16:41;;;;;;;14.23;9.50;;;18.00;99.90;;;;;;4979399;28;20033;-74
2021/07/28 04:19:07;;;;;;;9.68;7.60;;;18.00;99.90;;;;;;4999384;28;20026;-73
2021/07/28 04:21:33;;;;;;;11.52;8.48;;;18.00;99.90;;;;;;4993627;28;20037;-74
2021/07/28 04:23:58;;;;;;;10.32;8.48;;;18.00;99.90;;;;;;4990785;28;20070;-74
2021/07/28 04:26:24;;;;;;;8.50;7.63;;;18.00;99.90;;;;;;4992859;28;20026;-73
2021/07/28 04:28:50;;;;;;;13.65;7.95;;;18.10;99.90;;;;;;4993176;28;20026;-73
2021/07/28 04:31:16;;;;;;;10.25;9.25;;;18.20;99.90;;;;;;4993384;28;20109;-73
2021/07/28 04:33:42;;;;;;;15.02;9.48;;;18.30;99.90;;;;;;4993372;28;20095;-75
2021/07/28 04:36:08;;;;;;;15.88;9.90;;;18.30;99.90;;;;;;4992203;28;20485;-73
2021/07/28 04:38:34;;;;;;;16.13;10.02;;;18.30;99.90;;;;;;4992224;28;20026;-73
2021/07/28 04:41:00;;;;;;;12.23;10.75;;;18.40;99.90;;;;;;4975151;28;20027;-74
2021/07/28 04:43:26;;;;;;;14.43;10.43;;;18.40;99.90;;;;;;4973971;28;20027;-73
2021/07/28 04:46:02;;;;;;;11.85;9.73;;;18.40;99.90;;;;;;4954987;28;20038;-73
2021/07/28 04:48:28;;;;;;;19.83;11.63;;;18.30;99.90;;;;;;4955635;28;20023;-73
2021/07/28 04:50:56;;;;;;;13.95;11.60;;;18.60;99.90;;;;;;4973850;28;20058;-73
2021/07/28 04:53:22;;;;;;;12.82;10.52;;;18.60;99.90;;;;;;4973788;28;20055;-73
2021/07/28 04:55:52;;;;;;;11.70;8.70;;;18.50;99.90;;;;;;4973794;28;20070;-77
2021/07/28 04:58:19;;;;;;;11.63;9.23;;;18.50;99.90;;;;;;4974442;28;20038;-77
2021/07/28 05:00:45;;;;;;;13.02;9.18;;;18.60;99.90;;;;;;4974113;28;20030;-76
2021/07/28 05:03:10;;;;;;;13.35;9.02;;;18.60;99.90;;;;;;4989219;28;20030;-75
2021/07/28 05:05:36;;;;;;;13.93;8.77;;;18.60;99.90;;;;;;4992336;28;20033;-76
2021/07/28 05:08:02;;;;;;;10.35;9.23;;;18.40;99.90;;;;;;4992539;28;20056;-76
2021/07/28 05:10:27;;;;;;;12.98;9.70;;;18.40;99.90;;;;;;4993356;28;20026;-72
2021/07/28 05:12:53;;;;;;;13.63;10.60;;;18.60;99.90;;;;;;4976746;28;20022;-71
2021/07/28 05:15:18;;;;;;;14.70;10.77;;;18.70;99.90;;;;;;4972568;28;20524;-72
2021/07/28 05:17:44;;;;;;;9.82;8.90;;;18.70;99.90;;;;;;4985313;28;20030;-72
2021/07/28 05:20:11;;;;;;;14.00;9.50;;;18.70;99.90;;;;;;4992549;28;20026;-73
2021/07/28 05:22:36;;;;;;;15.73;8.27;;;18.60;99.90;;;;;;4992138;28;20045;-72
2021/07/28 05:25:02;;;;;;;9.32;7.95;;;18.50;99.90;;;;;;4991600;28;20042;-73
2021/07/28 05:27:28;;;;;;;8.93;7.93;;;18.50;99.90;;;;;;4992086;28;20026;-70
2021/07/28 05:29:55;;;;;;;12.07;8.98;;;18.50;99.90;;;;;;4992263;28;20041;-72
2021/07/28 05:32:23;;;;;;;8.18;7.40;;;18.60;99.90;;;;;;4992028;28;20102;-73
2021/07/28 05:34:52;;;;;;;9.35;8.27;;;18.60;99.90;;;;;;4991770;28;20026;-73
2021/07/28 05:37:19;;;;;;;12.48;8.27;;;18.50;99.90;;;;;;4991761;28;20030;-72
2021/07/28 05:39:45;;;;;;;10.95;8.15;;;18.40;99.90;;;;;;4991926;28;20038;-71
2021/07/28 05:42:11;;;;;;;13.85;8.27;;;18.50;99.90;;;;;;4991960;28;20056;-71
2021/07/28 05:44:37;;;;;;;14.27;8.43;;;18.60;99.90;;;;;;4977359;28;20106;-71
2021/07/28 05:47:03;;;;;;;14.13;9.00;;;18.40;99.90;;;;;;4989445;28;20092;-71
2021/07/28 05:49:29;;;;;;;13.93;9.63;;;18.30;99.90;;;;;;4980044;28;20023;-71
2021/07/28 05:51:55;;;;;;;12.85;9.13;;;18.50;99.90;;;;;;4972670;28;20026;-72
2021/07/28 05:54:21;;;;;;;13.25;9.30;;;18.50;99.90;;;;;;4975399;28;20041;-72
2021/07/28 05:56:47;;;;;;;9.88;8.55;;;18.60;99.90;;;;;;4996474;28;20100;-71
2021/07/28 05:59:13;;;;;;;10.80;8.13;;;18.50;99.90;;;;;;4989523;28;20034;-71
2021/07/28 06:01:39;;;;;;;11.82;7.45;;;18.50;99.90;;;;;;4972518;28;20031;-70
2021/07/28 06:04:05;;;;;;;11.13;7.55;;;18.30;99.90;;;;;;4979998;28;20393;-72
2021/07/28 06:06:30;;;;;;;15.88;8.10;;;18.10;99.90;;;;;;4991157;28;20169;-71
2021/07/28 06:08:56;;;;;;;13.23;8.43;;;18.20;99.90;;;;;;4991918;28;20019;-71
2021/07/28 06:11:22;;;;;;;10.25;7.70;;;18.40;99.90;;;;;;4991945;28;20026;-70
2021/07/28 06:13:48;;;;;;;9.48;8.27;;;18.30;99.90;;;;;;4991985;28;20184;-71
2021/07/28 06:16:14;;;;;;;12.95;8.15;;;18.30;99.90;;;;;;4991783;28;20070;-70
2021/07/28 06:18:40;;;;;;;9.10;7.13;;;18.20;99.90;;;;;;5011344;28;20037;-70
2021/07/28 06:21:06;;;;;;;15.35;7.78;;;18.20;99.90;;;;;;5011545;28;20022;-71
2021/07/28 06:23:31;;;;;;;12.43;7.18;;;18.10;99.90;;;;;;5010148;28;20030;-72
2021/07/28 06:25:57;;;;;;;13.07;8.40;;;18.00;99.90;;;;;;4971771;28;20030;-71
2021/07/28 06:28:23;;;;;;;9.73;8.80;;;18.00;99.90;;;;;;4971713;28;20031;-71
2021/07/28 06:30:53;;;;;;;12.60;8.32;;;17.90;99.90;;;;;;4972461;28;20027;-70
2021/07/28 06:33:20;;;;;;;11.57;7.95;;;18.10;99.90;;;;;;4984456;28;20393;-72
2021/07/28 06:35:50;;;;;;;12.65;7.47;;;18.20;99.90;;;;;;4991254;28;20401;-72
2021/07/28 06:38:16;;;;;;;9.00;7.32;;;18.20;99.90;;;;;;4991506;28;20030;-72
2021/07/28 06:40:43;;;;;;;12.07;8.13;;;18.20;99.90;;;;;;4991666;28;20029;-72
2021/07/28 06:43:09;;;;;;;10.30;7.55;;;18.20;99.90;;;;;;4991720;28;20030;-72
2021/07/28 06:45:35;;;;;;;12.77;8.18;;;18.10;99.90;;;;;;4991257;28;20042;-71
2021/07/28 06:48:00;;;;;;;14.10;8.90;;;18.10;99.90;;;;;;4991077;28;20031;-72
2021/07/28 06:50:26;;;;;;;11.65;7.28;;;18.10;99.90;;;;;;4974120;28;20058;-72
2021/07/28 06:52:52;;;;;;;10.52;6.95;;;18.00;99.90;;;;;;4991573;28;20022;-72
2021/07/28 06:55:17;;;;;;;8.60;6.68;;;18.00;99.90;;;;;;4976839;28;20122;-73
2021/07/28 06:57:43;;;;;;;8.38;6.50;;;18.00;99.90;;;;;;4972017;28;20053;-71
2021/07/28 07:00:09;;;;;;;7.78;6.68;;;18.00;99.90;;;;;;4972051;28;20062;-72
2021/07/28 07:02:36;;;;;;;7.45;5.60;;;18.10;99.90;;;;;;4973182;28;20034;-72
2021/07/28 07:05:02;;;;;;;9.75;6.38;;;18.00;99.90;;;;;;4975148;28;20045;-73
2021/07/28 07:07:28;;;;;;;7.57;5.90;;;18.00;99.90;;;;;;4975673;28;20392;-73
2021/07/28 07:09:53;;;;;;;9.70;5.88;;;18.00;99.90;;;;;;5012891;28;20022;-73
2021/07/28 07:12:19;;;;;;;9.63;5.60;;;18.00;99.90;;;;;;4976372;28;20126;-73
2021/07/28 07:14:46;;;;;;;6.60;4.93;;;18.00;99.90;;;;;;4974735;28;20109;-73
2021/07/28 07:17:11;;;;;;;6.75;5.50;;;18.00;99.90;;;;;;4975118;28;20027;-73
2021/07/28 07:19:37;;;;;;;7.50;5.63;;;18.10;99.90;;;;;;4982412;28;20035;-72
2021/07/28 07:22:03;;;;;;;8.63;5.97;;;18.30;99.90;;;;;;4994639;28;20037;-72
2021/07/28 07:24:29;;;;;;;5.78;5.28;;;18.30;99.90;;;;;;4992749;28;20031;-73
2021/07/28 07:26:55;;;;;;;6.70;5.50;;;18.20;99.90;;;;;;4974507;28;20454;-71
2021/07/28 07:29:21;;;;;;;9.18;5.35;;;18.20;99.90;;;;;;4975091;28;20026;-71
2021/07/28 07:31:46;;;;;;;5.57;5.05;;;18.00;99.90;;;;;;4974541;28;20038;-71
2021/07/28 07:34:12;;;;;;;7.43;5.68;;;18.10;99.90;;;;;;4975211;28;20037;-72
2021/07/28 07:36:38;;;;;;;6.00;5.40;;;18.30;99.90;;;;;;4974334;28;20023;-72
2021/07/28 07:39:04;;;;;;;7.53;5.78;;;18.40;99.90;;;;;;4975172;28;20551;-70
2021/07/28 07:41:31;;;;;;;8.63;5.50;;;18.40;99.90;;;;;;4975181;28;20102;-70
2021/07/28 07:44:00;;;;;;;7.13;5.43;;;18.30;99.90;;;;;;4975055;28;20074;-70
2021/07/28 07:46:26;;;;;;;5.60;5.10;;;18.30;99.90;;;;;;4956810;28;20070;-71
2021/07/28 07:48:52;;;;;;;7.25;5.80;;;18.30;99.90;;;;;;4976886;28;20481;-71
2021/07/28 07:51:18;;;;;;;7.63;6.65;;;18.40;99.90;;;;;;4994196;28;20022;-71
2021/07/28 07:53:43;;;;;;;9.95;6.68;;;18.50;99.90;;;;;;4994246;28;20037;-71
2021/07/28 07:56:09;;;;;;;12.57;6.65;;;18.50;99.90;;;;;;4993361;28;20050;-71
2021/07/28 07:58:35;;;;;;;6.50;5.75;;;18.40;99.90;;;;;;4980971;28;20117;-71
2021/07/28 08:01:08;;;;;;;7.85;6.78;;;18.40;99.90;;;;;;4974530;28;20027;-71
2021/07/28 08:03:34;;;;;;;8.68;6.70;;;18.40;99.90;;;;;;4957302;28;20560;-71
2021/07/28 08:06:00;;;;;;;11.77;6.85;;;18.10;99.90;;;;;;4990036;28;20038;-71
2021/07/28 08:08:25;;;;;;;8.45;6.47;;;17.70;99.90;;;;;;4993794;28;20077;-71
2021/07/28 08:10:51;;;;;;;7.93;6.68;;;17.80;99.90;;;;;;4994028;28;20105;-72
2021/07/28 08:13:16;;;;;;;9.57;6.78;;;17.90;99.90;;;;;;4993717;28;20097;-70
2021/07/28 08:15:42;;;;;;;9.02;6.93;;;17.90;99.90;;;;;;4993302;28;20030;-71
2021/07/28 08:18:09;;;;;;;8.52;7.63;;;18.10;99.90;;;;;;4993747;28;20037;-71
2021/07/28 08:20:36;;;;;;;10.18;8.40;;;18.30;99.90;;;;;;4979964;28;20027;-71
2021/07/28 08:23:02;;;;;;;12.45;7.50;;;18.50;99.90;;;;;;4974375;28;20027;-72
2021/07/28 08:25:28;;;;;;;10.00;7.40;;;18.50;99.90;;;;;;4973508;28;20134;-72
2021/07/28 08:27:54;;;;;;;14.43;7.28;;;18.40;99.90;;;;;;4974271;28;20106;-72
2021/07/28 08:30:19;;;;;;;7.40;6.60;;;18.10;99.90;;;;;;4971687;28;20547;-71
2021/07/28 08:32:45;;;;;;;9.35;6.78;;;18.10;99.90;;;;;;4993609;28;20027;-71
2021/07/28 08:35:11;;;;;;;7.47;6.57;;;18.10;99.90;;;;;;4993058;28;20018;-71
2021/07/28 08:37:39;;;;;;;9.35;5.47;;;18.40;99.90;;;;;;4993564;28;20045;-71
2021/07/28 08:40:16;;;;;;;8.02;5.68;;;18.50;99.90;;;;;;4993736;28;20030;-70
2021/07/28 08:42:46;;;;;;;8.50;5.40;;;18.60;99.90;;;;;;4993759;28;20057;-71
2021/07/28 08:45:14;;;;;;;7.47;5.63;;;18.40;99.90;;;;;;4991943;28;20080;-70
2021/07/28 08:47:41;;;;;;;8.73;5.47;;;18.30;99.90;;;;;;4993504;28;20022;-71
2021/07/28 08:50:09;;;;;;;5.80;4.88;;;18.30;99.90;;;;;;4993181;28;20019;-71
2021/07/28 08:52:36;;;;;;;6.05;5.30;;;18.50;99.90;;;;;;4991918;28;20077;-71
2021/07/28 08:55:03;;;;;;;10.02;4.63;;;18.40;99.90;;;;;;4974046;28;20509;-71
2021/07/28 08:57:31;;;;;;;6.95;4.43;;;18.30;99.90;;;;;;4990790;28;20088;-71
2021/07/28 08:59:57;;;;;;;5.13;4.30;;;18.30;99.90;;;;;;4992799;28;20062;-73
2021/07/28 09:02:23;;;;;;;5.93;4.43;;;18.60;99.90;;;;;;4992627;28;20022;-73
2021/07/28 09:04:49;;;;;;;4.82;4.30;;;19.00;99.90;;;;;;4991928;28;20032;-72
2021/07/28 09:07:15;;;;;;;5.75;4.22;;;19.20;99.90;;;;;;4992780;28;20416;-73
2021/07/28 09:09:54;;;;;;;5.47;4.10;;;19.20;99.90;;;;;;5007086;23;20038;-71
2021/07/28 09:12:30;;;;;;;6.95;3.72;;;19.30;99.90;;;;;;4990963;28;20120;-71
2021/07/28 09:14:58;;;;;;;9.27;4.43;;;19.50;99.90;;;;;;4992696;28;20018;-70
2021/07/28 09:17:27;;;;;;;4.78;4.10;;;19.80;99.90;;;;;;5005690;28;20148;-73
2021/07/28 09:19:53;;;;;;;5.22;4.72;;;19.90;99.90;;;;;;5012431;28;20045;-73
2021/07/28 09:22:20;;;;;;;4.78;4.15;;;20.10;99.90;;;;;;5001687;28;20113;-72
2021/07/28 09:25:15;;;;;;;4.15;3.75;;;20.40;99.90;;;;;;4991963;28;20030;-73
2021/07/28 09:27:52;;;;;;;7.30;4.03;;;20.40;99.90;;;;;;4993116;28;20022;-73
2021/07/28 09:30:30;;;;;;;4.40;3.97;;;19.80;99.90;;;;;;4993088;28;20054;-72
2021/07/28 09:33:11;;;;;;;6.30;4.18;;;19.80;99.90;;;;;;4975976;28;20388;-72
2021/07/28 09:35:49;;;;;;;7.85;4.70;;;19.90;99.90;;;;;;4991729;28;20448;-73
2021/07/28 09:38:34;;;;;;;4.85;4.03;;;19.80;99.90;;;;;;4993196;28;20448;-73
2021/07/28 09:41:21;;;;;;;3.55;3.17;;;20.00;99.90;;;;;;4975983;28;20030;-73
2021/07/28 09:43:51;;;;;;;4.25;3.85;;;19.80;99.90;;;;;;4996166;28;20031;-72
2021/07/28 09:46:39;;;;;;;4.07;3.58;;;20.00;99.90;;;;;;5004068;28;20044;-73
2021/07/28 09:49:07;;;;;;;3.78;3.40;;;20.10;99.90;;;;;;5016273;28;20030;-71
2021/07/28 09:51:36;;;;;;;7.75;3.50;;;20.20;99.90;;;;;;5013775;28;20058;-72
2021/07/28 09:54:10;;;;;;;5.03;3.53;;;20.30;99.90;;;;;;5013131;28;20022;-72
2021/07/28 09:56:41;;;;;;;5.80;3.78;;;20.40;99.90;;;;;;5012029;28;20508;-72
2021/07/28 09:59:07;;;;;;;4.17;3.37;;;20.40;99.90;;;;;;5013030;28;20065;-72
2021/07/28 10:01:34;;;;;;;6.65;3.45;;;20.00;99.90;;;;;;5012067;28;20253;-72
2021/07/28 10:04:01;;;;;;;5.00;3.50;;;19.70;99.90;;;;;;5011321;28;20025;-72
2021/07/28 10:06:37;;;;;;;7.15;3.63;;;19.90;99.90;;;;;;5012082;28;20040;-72
2021/07/28 10:09:09;;;;;;;5.60;4.03;;;20.20;99.90;;;;;;5012341;28;20030;-72
2021/07/28 10:11:39;;;;;;;3.85;3.55;;;20.00;99.90;;;;;;4994550;28;20077;-72
2021/07/28 10:14:05;;;;;;;4.05;3.33;;;20.10;99.90;;;;;;5012695;28;20026;-73
2021/07/28 10:16:34;;;;;;;5.00;3.80;;;20.30;99.90;;;;;;5011739;28;20105;-73
2021/07/28 10:19:04;;;;;;;3.53;3.22;;;20.40;99.90;;;;;;5011681;28;20594;-72
2021/07/28 10:21:34;;;;;;;3.95;3.55;;;20.40;99.90;;;;;;5012768;28;20033;-78
2021/07/28 10:24:01;;;;;;;6.72;3.10;;;20.70;99.90;;;;;;4995377;28;20034;-77
2021/07/28 10:26:32;;;;;;;4.70;3.15;;;20.70;99.90;;;;;;5006477;28;20101;-76
2021/07/28 10:28:58;;;;;;;4.22;3.70;;;20.80;99.90;;;;;;5008643;28;20427;-77
2021/07/28 10:31:28;;;;;;;4.53;3.50;;;20.60;99.90;;;;;;4991519;28;20054;-77
2021/07/28 10:33:55;;;;;;;5.00;3.22;;;20.30;99.90;;;;;;4975795;28;20077;-70
2021/07/28 10:36:42;;;;;;;5.93;3.58;;;20.50;99.90;;;;;;4994005;28;20018;-76
2021/07/28 10:39:07;;;;;;;5.85;3.53;;;20.70;99.90;;;;;;4979968;28;20519;-74
2021/07/28 10:41:39;;;;;;;8.65;6.65;;;20.80;99.90;;;;;;4996755;28;20038;-72
2021/07/28 10:44:09;;;;;;;;;;;21.10;99.90;;;;;;4996885;28;20041;-74
2021/07/28 10:46:55;;;;;;;4.32;3.88;;;20.80;99.90;;;;;;4998179;28;19916;-74
2021/07/28 10:49:36;;;;;;;7.35;4.18;;;21.70;99.90;;;;;;5015436;28;20033;-74
2021/07/28 10:52:03;;;;;;;3.90;3.28;;;22.00;99.90;;;;;;4997641;28;20140;-74
2021/07/28 10:54:48;;;;;;;4.03;3.45;;;21.50;99.90;;;;;;5014695;28;20425;-74
2021/07/28 10:57:43;;;;;;;3.58;3.28;;;20.90;99.90;;;;;;5015096;28;20025;-73
2021/07/28 11:00:30;;;;;;;4.63;3.30;;;20.90;99.90;;;;;;4987851;28;20053;-74
2021/07/28 11:02:58;;;;;;;3.55;3.17;;;21.10;99.90;;;;;;5001369;28;20033;-76
2021/07/28 11:05:26;;;;;;;4.70;3.17;;;21.30;99.90;;;;;;4992804;28;20053;-75
2021/07/28 11:08:07;;;;;;;3.30;3.00;;;21.40;99.90;;;;;;5014419;28;20041;-77
2021/07/28 11:10:41;;;;;;;3.38;3.00;;;21.10;99.90;;;;;;4996360;28;20399;-77
2021/07/28 11:13:11;;;;;;;5.18;3.20;;;20.70;99.90;;;;;;5014002;28;20029;-76
2021/07/28 11:15:38;;;;;;;6.40;3.40;;;21.30;99.90;;;;;;5013291;28;20029;-76
2021/07/28 11:18:04;;;;;;;3.78;3.47;;;21.80;99.90;;;;;;4995737;28;20431;-75
2021/07/28 11:20:34;;;;;;;3.30;3.08;;;22.50;99.90;;;;;;4993829;28;20026;-77
2021/07/28 11:23:22;;;;;;;3.92;3.25;;;22.90;99.90;;;;;;4996123;28;20018;-75
2021/07/28 11:25:48;;;;;;;3.22;2.97;;;23.00;99.90;;;;;;4995260;28;20057;-74
2021/07/28 11:28:17;;;;;;;3.15;2.85;;;23.30;99.90;;;;;;5013988;28;20037;-75
2021/07/28 11:30:43;;;;;;;5.40;3.08;;;23.00;99.90;;;;;;5008973;28;20468;-75
2021/07/28 11:33:16;;;;;;;4.22;3.00;;;23.30;99.90;;;;;;5013709;28;20056;-75
2021/07/28 11:35:46;;;;;;;3.28;2.90;;;24.10;99.90;;;;;;5013438;28;20017;-74
2021/07/28 11:38:17;;;;;;;4.53;3.50;;;23.60;99.90;;;;;;4996300;28;20026;-74
2021/07/28 11:40:44;;;;;;;3.70;3.30;;;23.70;99.90;;;;;;5013402;28;20030;-73
2021/07/28 11:43:29;;;;;;;4.30;3.25;;;24.60;99.90;;;;;;5013133;28;20268;-73
2021/07/28 11:45:56;;;;;;;4.82;2.92;;;24.80;99.90;;;;;;5012487;28;20112;-74
2021/07/28 11:48:38;;;;;;;5.00;3.40;;;25.00;99.90;;;;;;5012155;28;20060;-74
2021/07/28 11:51:08;;;;;;;3.17;2.80;;;25.20;99.90;;;;;;5013287;28;20032;-74
2021/07/28 11:53:35;;;;;;;3.13;2.85;;;25.40;99.90;;;;;;5013559;28;20030;-74
2021/07/28 11:56:11;;;;;;;4.38;3.25;;;25.00;99.90;;;;;;5012958;28;20104;-73
2021/07/28 11:58:41;;;;;;;3.50;3.20;;;25.20;99.90;;;;;;5012988;28;20029;-72
2021/07/28 12:01:47;;;;;;;3.10;2.70;;;26.20;99.90;;;;;;4986753;28;20030;-73
2021/07/28 12:04:17;;;;;;;3.83;3.40;;;26.00;99.90;;;;;;4913838;29;20051;-73
2021/07/28 12:06:44;;;;;;;3.03;2.83;;;26.40;99.90;;;;;;4914143;29;20166;-73
2021/07/28 12:09:12;;;;;;;5.13;3.50;;;26.80;99.40;;;;;;4913791;29;20431;-72
2021/07/28 12:11:53;;;;;;;3.90;3.10;;;27.50;99.20;;;;;;4913773;29;20033;-74
2021/07/28 12:14:29;;;;;;;3.65;3.00;;;27.30;98.50;;;;;;4913436;29;20031;-72
2021/07/28 12:16:58;;;;;;;7.47;3.25;;;27.90;99.70;;;;;;4913707;29;20464;-72
2021/07/28 12:19:26;;;;;;;6.18;2.85;;;27.70;99.00;;;;;;4913301;29;20032;-72
2021/07/28 12:22:12;;;;;;;3.53;2.95;;;26.80;98.70;;;;;;4913891;29;20040;-71
2021/07/28 12:24:47;;;;;;;6.22;2.83;;;27.90;97.50;;;;;;4913616;29;20506;-72
2021/07/28 12:27:25;;;;;;;5.68;2.97;;;28.60;95.60;;;;;;4914854;29;20087;-71
2021/07/28 12:30:00;;;;;;;4.38;3.42;;;27.50;96.10;;;;;;4914437;29;20021;-70
2021/07/28 12:32:43;;;;;;;3.80;3.05;;;26.70;97.10;;;;;;4914524;29;20345;-71
2021/07/28 12:35:14;;;;;;;3.30;3.05;;;25.90;98.80;;;;;;4943087;28;20096;-72
2021/07/28 12:37:40;;;;;;;;;;;26.50;99.90;;;;;;4998671;28;20037;-72
2021/07/28 12:40:07;;;;;;;4.43;3.25;;;25.90;97.60;;;;;;5013987;28;19905;-72
2021/07/28 12:42:33;;;;;;;4.13;3.10;;;26.30;99.40;;;;;;5013664;28;20029;-72
2021/07/28 12:44:59;;;;;;;4.45;3.15;;;27.30;97.80;;;;;;5014202;28;20048;-70
2021/07/28 12:47:25;;;;;;;5.05;3.25;;;27.00;97.20;;;;;;5014585;28;20034;-71
2021/07/28 12:49:52;;;;;;;3.58;3.28;;;27.80;96.10;;;;;;5013684;28;20048;-72